Time;durP1;ratioP1;P1;durP2;ratioP2;P2;SDS_P1;SDS_P2;PMS_P1;PMS_P2;Temp;Humidity;BMP_temperature;BMP_pressure;BME280_temperature;BME280_humidity;BME280_pressure;Samples;Min_cycle;Max_cycle;Signal;HPM_P1;HPM_P2
2023/10/18 00:01:12;;;;;;;12.63;6.25;;;;;;;6.07;94.75;99024.69;4485517;32;20160;-77
2023/10/18 00:03:41;;;;;;;11.02;5.97;;;;;;;6.13;94.54;99021.69;4485271;32;20115;-77
2023/10/18 00:06:12;;;;;;;14.18;6.53;;;;;;;6.12;94.41;99030.41;4485214;32;20088;-77
2023/10/18 00:08:40;;;;;;;11.25;5.75;;;;;;;6.06;94.77;99016.97;4485225;32;20084;-77
2023/10/18 00:11:07;;;;;;;8.68;5.45;;;;;;;6.06;95.14;99017.81;4485167;32;20093;-77
2023/10/18 00:13:34;;;;;;;13.82;5.97;;;;;;;6.13;94.71;99006.06;4485372;32;20108;-77
2023/10/18 00:16:03;;;;;;;18.60;6.53;;;;;;;6.08;94.99;98995.13;4483771;32;20097;-77
2023/10/18 00:18:34;;;;;;;10.93;5.97;;;;;;;6.08;94.90;99002.09;4485406;32;20100;-77
2023/10/18 00:21:04;;;;;;;12.88;5.65;;;;;;;6.06;95.04;98999.59;4485154;32;20115;-77
2023/10/18 00:23:33;;;;;;;17.27;6.03;;;;;;;6.04;95.06;99002.31;4485500;32;20161;-77
2023/10/18 00:26:07;;;;;;;12.10;6.32;;;;;;;6.01;95.21;99001.66;4485158;32;20088;-77
2023/10/18 00:28:37;;;;;;;14.43;5.90;;;;;;;6.00;95.26;99005.22;4482098;32;20791;-77
2023/10/18 00:31:17;;;;;;;12.80;5.78;;;;;;;6.00;95.18;99013.84;4484878;32;20533;-77
2023/10/18 00:33:46;;;;;;;13.73;6.15;;;;;;;5.92;95.98;99012.66;4485248;32;20084;-77
2023/10/18 00:36:18;;;;;;;11.25;6.47;;;;;;;5.86;96.50;99001.72;4484923;32;20141;-77
2023/10/18 00:38:46;;;;;;;10.93;5.80;;;;;;;5.86;96.61;99003.50;4485047;32;20126;-77
2023/10/18 00:41:22;;;;;;;14.00;6.22;;;;;;;5.90;96.42;98998.94;4484881;32;20185;-77
2023/10/18 00:43:52;;;;;;;12.80;5.28;;;;;;;5.85;96.56;99002.66;4484994;32;20109;-77
2023/10/18 00:46:21;;;;;;;11.88;6.03;;;;;;;5.76;96.97;98998.06;4484328;32;20084;-77
2023/10/18 00:48:50;;;;;;;14.63;6.53;;;;;;;5.80;96.85;98994.34;4484872;32;20155;-77
2023/10/18 00:51:19;;;;;;;16.15;6.00;;;;;;;5.74;97.37;98983.50;4484874;32;20165;-77
2023/10/18 00:53:46;;;;;;;11.18;5.50;;;;;;;5.69;97.66;98982.06;4485011;32;20096;-77
2023/10/18 00:56:15;;;;;;;11.43;5.82;;;;;;;5.72;97.62;98983.59;4484905;32;20092;-77
2023/10/18 00:58:47;;;;;;;12.20;5.95;;;;;;;5.82;97.38;98982.06;4485056;32;20119;-77
2023/10/18 01:01:17;;;;;;;12.32;5.93;;;;;;;5.85;97.08;98994.84;4484795;32;20445;-77
2023/10/18 01:03:46;;;;;;;13.57;6.03;;;;;;;5.90;96.77;98991.12;4471519;32;20572;-77
2023/10/18 01:06:26;;;;;;;10.93;5.35;;;;;;;5.89;96.92;98981.66;4484779;32;20592;-77
2023/10/18 01:08:56;;;;;;;9.13;5.12;;;;;;;5.79;97.47;98977.06;4484938;32;20116;-77
2023/10/18 01:11:27;;;;;;;12.13;5.45;;;;;;;5.75;97.72;98970.41;4484648;32;20585;-77
2023/10/18 01:13:55;;;;;;;11.55;5.68;;;;;;;5.73;97.84;98961.88;4484970;32;20088;-77
2023/10/18 01:16:23;;;;;;;12.00;5.62;;;;;;;5.76;97.98;98963.44;4483580;32;20116;-77
2023/10/18 01:18:55;;;;;;;10.35;5.53;;;;;;;5.75;98.03;98954.78;4484693;32;20096;-77
2023/10/18 01:21:24;;;;;;;17.62;6.28;;;;;;;5.74;98.19;98963.56;4470835;32;20107;-77
2023/10/18 01:23:53;;;;;;;13.68;5.43;;;;;;;5.71;98.40;98949.91;4470533;32;20108;-77
2023/10/18 01:26:25;;;;;;;16.20;5.95;;;;;;;5.69;98.49;98947.41;4484748;32;20092;-77
2023/10/18 01:28:54;;;;;;;10.57;5.95;;;;;;;5.70;98.69;98956.87;4481326;32;20441;-77
2023/10/18 01:31:23;;;;;;;15.80;6.30;;;;;;;5.73;98.68;98958.44;4484633;32;20080;-77
2023/10/18 01:34:03;;;;;;;11.20;5.60;;;;;;;5.73;98.61;98964.47;4484819;32;20092;-76
2023/10/18 01:36:35;;;;;;;11.98;5.65;;;;;;;5.72;98.73;98955.00;4484657;32;20103;-77
2023/10/18 01:39:21;;;;;;;17.05;5.82;;;;;;;5.73;98.88;98955.84;4484947;32;20418;-77
2023/10/18 01:41:53;;;;;;;13.80;5.40;;;;;;;5.75;98.83;98954.78;4484472;32;20093;-77
2023/10/18 01:44:38;;;;;;;11.25;5.60;;;;;;;5.73;98.95;98946.28;4484751;32;20080;-77
2023/10/18 01:47:09;;;;;;;13.48;5.85;;;;;;;5.67;99.29;98944.91;4484499;32;20084;-77
2023/10/18 01:49:46;;;;;;;10.90;5.00;;;;;;;5.71;99.32;98948.16;4484336;32;20092;-77
2023/10/18 01:52:19;;;;;;;11.12;5.70;;;;;;;5.75;99.21;98943.56;4484353;32;20088;-77
2023/10/18 01:54:49;;;;;;;13.18;5.60;;;;;;;5.68;99.53;98948.38;4484612;32;20145;-77
2023/10/18 01:57:17;;;;;;;8.93;5.72;;;;;;;5.73;99.47;98940.25;4483328;32;20088;-77
2023/10/18 01:59:47;;;;;;;10.68;5.80;;;;;;;5.75;99.33;98944.41;4484436;32;20793;-77
2023/10/18 02:02:15;;;;;;;11.52;6.18;;;;;;;5.76;99.22;98951.28;4484180;32;20562;-77
2023/10/18 02:04:44;;;;;;;9.77;5.40;;;;;;;5.77;99.08;98958.16;4484307;32;20109;-77
2023/10/18 02:07:21;;;;;;;11.05;5.97;;;;;;;5.72;99.50;98956.78;4484127;32;20166;-77
2023/10/18 02:09:52;;;;;;;13.45;5.62;;;;;;;5.70;99.60;98954.28;4484280;32;20092;-77
2023/10/18 02:12:20;;;;;;;10.02;5.87;;;;;;;5.63;99.97;98950.41;4484074;32;20442;-77
2023/10/18 02:14:48;;;;;;;14.98;5.97;;;;;;;5.62;100.00;98952.19;4484105;32;20494;-77
2023/10/18 02:17:18;;;;;;;11.35;6.05;;;;;;;5.69;99.84;98947.41;4482979;32;20446;-77
2023/10/18 02:19:47;;;;;;;9.77;5.57;;;;;;;5.67;99.86;98951.88;4484092;32;20088;-77
2023/10/18 02:22:16;;;;;;;11.90;6.10;;;;;;;5.62;100.00;98951.38;4484214;32;20213;-77
2023/10/18 02:24:44;;;;;;;10.98;5.75;;;;;;;5.60;100.00;98955.81;4483887;32;20109;-77
2023/10/18 02:27:19;;;;;;;9.85;5.40;;;;;;;5.62;100.00;98954.78;4482449;32;20115;-77
2023/10/18 02:29:47;;;;;;;14.43;5.78;;;;;;;5.59;100.00;98959.38;4483777;32;20751;-77
2023/10/18 02:32:32;;;;;;;11.30;6.03;;;;;;;5.62;99.96;98964.37;4483857;32;20088;-77
2023/10/18 02:35:07;;;;;;;13.18;5.85;;;;;;;5.60;100.00;98963.63;4484133;32;20101;-77
2023/10/18 02:37:35;;;;;;;13.80;6.85;;;;;;;5.59;100.00;98959.38;4484146;32;20153;-77
2023/10/18 02:40:09;;;;;;;13.65;6.12;;;;;;;5.46;100.00;98960.16;4483840;32;20080;-77
2023/10/18 02:42:37;;;;;;;10.95;5.57;;;;;;;5.51;100.00;98954.66;4483991;32;20486;-77
2023/10/18 02:45:12;;;;;;;10.05;5.45;;;;;;;5.47;100.00;98967.00;4483639;32;20096;-77
2023/10/18 02:47:41;;;;;;;12.45;6.45;;;;;;;5.47;100.00;98964.41;4483857;32;20077;-77
2023/10/18 02:50:09;;;;;;;9.48;5.57;;;;;;;5.54;100.00;98961.41;4483921;32;20120;-77
2023/10/18 02:52:36;;;;;;;13.75;6.37;;;;;;;5.53;100.00;98967.53;4483726;32;20095;-77
2023/10/18 02:55:08;;;;;;;13.48;6.00;;;;;;;5.59;100.00;98959.38;4483609;32;20092;-77
2023/10/18 02:57:36;;;;;;;12.63;6.75;;;;;;;5.59;100.00;98949.78;4483664;32;20107;-77
2023/10/18 03:00:10;;;;;;;11.68;6.12;;;;;;;5.59;100.00;98948.97;4483501;32;20096;-77
2023/10/18 03:02:38;;;;;;;13.00;6.05;;;;;;;5.67;100.00;98942.31;4483462;32;20080;-77
2023/10/18 03:05:07;;;;;;;21.58;7.07;;;;;;;5.58;100.00;98955.09;4483315;32;20587;-77
2023/10/18 03:07:35;;;;;;;10.88;5.18;;;;;;;5.49;100.00;98953.94;4483571;32;20122;-77
2023/10/18 03:10:11;;;;;;;13.45;6.37;;;;;;;5.56;100.00;98954.38;4485039;32;20119;-77
2023/10/18 03:12:44;;;;;;;11.25;6.80;;;;;;;5.56;100.00;98943.97;4485637;32;20088;-77
2023/10/18 03:15:17;;;;;;;14.70;6.03;;;;;;;5.61;100.00;98942.72;4485535;32;20111;-77
2023/10/18 03:17:48;;;;;;;10.57;6.50;;;;;;;5.62;100.00;98940.97;4469685;32;20085;-77
2023/10/18 03:20:20;;;;;;;12.50;6.20;;;;;;;5.71;100.00;98942.09;4469822;32;20435;-77
2023/10/18 03:22:49;;;;;;;11.82;6.07;;;;;;;5.70;100.00;98925.69;4469859;32;20081;-77
2023/10/18 03:25:16;;;;;;;12.77;6.05;;;;;;;5.65;100.00;98931.19;4469689;32;20096;-77
2023/10/18 03:27:51;;;;;;;12.13;6.55;;;;;;;5.59;100.00;98935.97;4475215;32;20103;-77
2023/10/18 03:30:20;;;;;;;12.27;6.68;;;;;;;5.58;100.00;98939.50;4485488;32;20092;-77
2023/10/18 03:32:49;;;;;;;11.93;6.70;;;;;;;5.48;100.00;98942.72;4485447;32;20092;-77
2023/10/18 03:35:20;;;;;;;10.77;6.35;;;;;;;5.54;100.00;98935.44;4485341;32;20123;-77
2023/10/18 03:37:49;;;;;;;12.15;7.07;;;;;;;5.56;100.00;98930.97;4485794;32;20119;-77
2023/10/18 03:40:23;;;;;;;12.50;6.85;;;;;;;5.38;100.00;98926.06;4485478;32;20093;-77
2023/10/18 03:42:53;;;;;;;17.73;6.53;;;;;;;5.27;100.00;98931.12;4485654;32;20111;-77
2023/10/18 03:45:22;;;;;;;11.63;6.32;;;;;;;5.22;100.00;98925.38;4485504;32;20092;-77
2023/10/18 03:47:59;;;;;;;15.02;6.97;;;;;;;5.32;100.00;98916.06;4485273;32;20198;-77
2023/10/18 03:50:47;;;;;;;14.55;6.25;;;;;;;5.31;100.00;98911.78;4485385;32;20468;-77
2023/10/18 03:53:18;;;;;;;15.93;7.00;;;;;;;5.26;100.00;98924.25;4485243;32;20164;-77
2023/10/18 03:55:45;;;;;;;14.10;6.80;;;;;;;5.26;100.00;98922.47;4485442;32;20458;-77
2023/10/18 03:58:22;;;;;;;18.37;6.40;;;;;;;5.28;100.00;98924.97;4485195;32;20160;-77
2023/10/18 04:00:56;;;;;;;15.45;6.50;;;;;;;5.26;100.00;98929.44;4485358;32;20084;-77
2023/10/18 04:03:30;;;;;;;12.70;6.47;;;;;;;5.20;100.00;98935.03;4484942;32;20126;-77
2023/10/18 04:06:03;;;;;;;12.10;6.07;;;;;;;5.20;100.00;98933.28;4483289;32;20099;-77
2023/10/18 04:08:32;;;;;;;11.02;6.20;;;;;;;5.14;100.00;98931.88;4484639;32;20105;-77
2023/10/18 04:11:00;;;;;;;12.45;6.25;;;;;;;5.14;100.00;98928.47;4485108;32;20198;-77
2023/10/18 04:13:31;;;;;;;14.43;6.75;;;;;;;5.16;100.00;98931.78;4484786;32;20108;-77
2023/10/18 04:16:11;;;;;;;13.95;6.78;;;;;;;5.07;100.00;98933.25;4480365;32;20109;-77
2023/10/18 04:18:41;;;;;;;12.55;6.72;;;;;;;5.12;100.00;98930.34;4468848;32;20081;-77
2023/10/18 04:21:15;;;;;;;12.75;7.37;;;;;;;5.11;100.00;98926.91;4468591;32;20147;-77
2023/10/18 04:23:49;;;;;;;12.13;6.37;;;;;;;5.06;100.00;98935.94;4469496;32;20093;-76
2023/10/18 04:26:20;;;;;;;14.23;6.53;;;;;;;5.08;100.00;98937.47;4467795;32;20084;-77
2023/10/18 04:28:55;;;;;;;17.05;7.30;;;;;;;5.01;100.00;98931.03;4479646;32;20574;-77
2023/10/18 04:31:22;;;;;;;13.18;6.97;;;;;;;5.01;100.00;98935.38;4484983;32;20480;-77
2023/10/18 04:33:52;;;;;;;11.68;6.65;;;;;;;5.05;100.00;98942.88;4485133;32;20096;-77
2023/10/18 04:36:21;;;;;;;13.43;6.85;;;;;;;5.07;100.00;98940.19;4484901;32;20599;-77
2023/10/18 04:38:51;;;;;;;21.40;7.25;;;;;;;5.08;100.00;98940.06;4485052;32;20088;-77
2023/10/18 04:44:07;;;;;;;13.50;7.03;;;;;;;5.02;100.00;98937.88;4485172;32;20115;-77
2023/10/18 04:46:37;;;;;;;19.25;6.72;;;;;;;5.01;100.00;98943.16;4484910;32;20106;-77
2023/10/18 04:54:08;;;;;;;14.23;7.20;;;;;;;4.90;100.00;98933.47;4470636;32;20112;-77
2023/10/18 04:56:38;;;;;;;16.77;7.53;;;;;;;4.90;100.00;98930.88;4484612;32;20144;-77
2023/10/18 04:59:19;;;;;;;23.73;7.32;;;;;;;4.91;100.00;98941.16;4470787;32;20099;-77
2023/10/18 05:04:32;;;;;;;15.23;8.15;;;;;;;4.91;100.00;98935.13;4478677;31;20197;-78
2023/10/18 05:07:20;;;;;;;15.95;8.73;;;;;;;4.87;100.00;98938.84;4465638;32;20093;-77
2023/10/18 05:09:55;;;;;;;24.67;8.95;;;;;;;4.86;100.00;98937.19;4485019;31;20175;-78
2023/10/18 05:15:16;;;;;;;24.08;7.97;;;;;;;4.83;100.00;98935.63;4487765;31;20145;-77
2023/10/18 05:17:48;;;;;;;17.83;7.45;;;;;;;4.79;100.00;98939.34;4484868;31;20170;-78
2023/10/18 05:22:52;;;;;;;12.40;6.97;;;;;;;4.92;100.00;98945.44;4477140;32;20138;-76
2023/10/18 05:28:00;;;;;;;21.30;7.45;;;;;;;4.98;100.00;98951.97;4491542;31;20100;-78
2023/10/18 05:33:29;;;;;;;27.92;8.90;;;;;;;5.07;100.00;98955.75;4499406;31;20149;-78
2023/10/18 05:38:52;;;;;;;34.05;11.70;;;;;;;5.30;100.00;98959.50;4483385;32;20088;-79
2023/10/18 05:41:29;;;;;;;29.70;11.50;;;;;;;5.44;100.00;98961.19;4475257;32;20468;-78
2023/10/18 05:44:00;;;;;;;30.05;13.23;;;;;;;5.66;100.00;98961.47;4476430;31;20112;-77
2023/10/18 05:46:28;;;;;;;48.92;13.52;;;;;;;5.83;100.00;98956.91;4460019;32;20096;-76
2023/10/18 05:48:57;;;;;;;32.92;12.37;;;;;;;5.90;100.00;98952.13;4479278;32;20476;-77
2023/10/18 05:51:26;;;;;;;31.25;13.10;;;;;;;6.02;100.00;98949.53;4470212;32;20150;-77
2023/10/18 05:54:00;;;;;;;28.10;11.88;;;;;;;6.12;100.00;98949.78;4468446;32;20462;-77
2023/10/18 05:56:32;;;;;;;27.23;10.38;;;;;;;6.18;100.00;98951.94;4474870;31;20108;-77
2023/10/18 06:01:49;;;;;;;24.50;9.85;;;;;;;6.35;100.00;98947.38;4484213;32;20541;-77
2023/10/18 06:04:23;;;;;;;19.48;8.00;;;;;;;6.48;100.00;98950.78;4487525;31;20534;-78
2023/10/18 06:06:52;;;;;;;;;;;;;;;6.55;100.00;98954.59;4488997;31;20123;-80
2023/10/18 06:09:32;;;;;;;19.17;7.35;;;;;;;6.51;100.00;98958.38;4473557;31;20000;-77
2023/10/18 06:12:05;;;;;;;19.33;7.43;;;;;;;6.62;100.00;98954.19;4474568;31;20113;-76
2023/10/18 06:14:44;;;;;;;16.45;7.72;;;;;;;6.85;100.00;98966.41;4471094;32;20093;-75
2023/10/18 06:17:54;;;;;;;18.05;8.35;;;;;;;7.00;100.00;98972.31;4464209;32;20115;-75
2023/10/18 06:20:23;;;;;;;13.20;7.87;;;;;;;7.03;100.00;98976.47;4461967;32;20108;-76
2023/10/18 06:22:50;;;;;;;11.52;6.78;;;;;;;7.04;100.00;98967.69;4471261;31;20482;-76
2023/10/18 06:25:26;;;;;;;15.00;7.15;;;;;;;7.12;100.00;98968.00;4469375;32;20096;-77
2023/10/18 06:27:53;;;;;;;11.82;6.43;;;;;;;7.17;99.04;98978.09;4474101;31;20783;-77
2023/10/18 06:30:24;;;;;;;11.70;6.22;;;;;;;7.21;98.64;98977.75;4475439;32;20130;-77
2023/10/18 06:32:52;;;;;;;17.08;7.18;;;;;;;7.36;98.32;98981.03;4471902;32;20665;-75
2023/10/18 06:35:26;;;;;;;12.30;6.55;;;;;;;7.42;98.51;98985.81;4479655;31;20112;-74
2023/10/18 06:38:06;;;;;;;21.30;7.20;;;;;;;7.46;97.10;98987.25;4475956;31;20096;-76
2023/10/18 06:40:43;;;;;;;17.55;7.37;;;;;;;7.51;97.89;98980.84;4478052;31;20092;-75
2023/10/18 06:43:31;;;;;;;22.70;6.47;;;;;;;7.75;96.44;98986.87;4480165;31;20099;-76
2023/10/18 06:45:58;;;;;;;14.68;7.05;;;;;;;7.69;95.18;98981.28;4480746;31;20227;-74
2023/10/18 06:48:30;;;;;;;13.77;6.30;;;;;;;7.69;96.44;98986.50;4474393;31;20100;-76
2023/10/18 06:50:59;;;;;;;45.45;7.15;;;;;;;7.86;95.57;98977.41;4474640;32;20124;-76
2023/10/18 06:53:28;;;;;;;15.23;6.87;;;;;;;7.90;94.88;98984.06;4479329;31;20160;-75
2023/10/18 06:55:58;;;;;;;17.20;6.90;;;;;;;7.72;94.16;98986.25;4467516;31;20143;-79
2023/10/18 07:01:04;;;;;;;15.82;6.68;;;;;;;8.16;94.02;98979.47;4472279;32;20107;-74
2023/10/18 07:03:33;;;;;;;16.90;6.40;;;;;;;8.20;92.88;98983.53;4464498;32;20119;-73
2023/10/18 07:06:04;;;;;;;24.17;7.50;;;;;;;8.32;92.04;98982.59;4466304;32;20737;-77
2023/10/18 07:08:33;;;;;;;15.48;7.72;;;;;;;8.30;92.32;98983.66;4473898;32;20150;-75
2023/10/18 07:11:08;;;;;;;13.32;6.85;;;;;;;8.45;93.01;98979.09;4474507;32;20093;-76
2023/10/18 07:13:50;;;;;;;12.43;6.62;;;;;;;8.72;91.07;98980.50;4468835;32;20380;-75
2023/10/18 07:16:39;;;;;;;14.20;6.57;;;;;;;8.74;89.52;98978.59;4477269;31;20100;-78
2023/10/18 07:19:21;;;;;;;14.43;7.07;;;;;;;8.86;88.95;98990.69;4465112;32;20488;-76
2023/10/18 07:21:48;;;;;;;14.77;7.37;;;;;;;9.01;87.82;98992.09;4475218;32;20096;-76
2023/10/18 07:24:20;;;;;;;17.05;7.18;;;;;;;9.11;87.38;98986.13;4473905;32;20118;-76
2023/10/18 07:26:48;;;;;;;13.25;6.95;;;;;;;8.98;86.95;98981.88;4472204;31;20545;-77
2023/10/18 07:29:16;;;;;;;13.75;7.28;;;;;;;9.04;85.91;98986.63;4479453;32;20101;-76
2023/10/18 07:31:46;;;;;;;19.12;6.75;;;;;;;9.02;86.86;98985.94;4472234;32;20115;-79
2023/10/18 07:34:28;;;;;;;12.32;7.05;;;;;;;9.31;88.18;98993.22;4467227;31;20084;-77
2023/10/18 07:36:57;;;;;;;13.23;7.35;;;;;;;9.45;86.85;98988.63;4477541;31;20116;-78
2023/10/18 07:39:24;;;;;;;15.35;7.10;;;;;;;9.65;84.20;98989.66;4474641;32;20639;-77
2023/10/18 07:41:52;;;;;;;12.10;6.82;;;;;;;9.84;84.26;98984.56;4474252;32;20183;-76
2023/10/18 07:44:20;;;;;;;25.77;6.95;;;;;;;10.01;83.02;98980.53;4463799;32;20088;-76
2023/10/18 07:46:47;;;;;;;16.85;7.18;;;;;;;9.90;82.50;98980.59;4473721;32;20161;-76
2023/10/18 07:49:17;;;;;;;14.07;6.97;;;;;;;9.71;82.90;98973.44;4472569;32;21054;-80
2023/10/18 07:51:48;;;;;;;13.38;7.03;;;;;;;9.82;83.06;98972.56;4477408;31;20123;-78
2023/10/18 07:54:18;;;;;;;14.68;7.07;;;;;;;9.92;80.96;98970.84;4464657;32;20168;-79
2023/10/18 07:56:54;;;;;;;12.07;6.70;;;;;;;9.91;80.75;98979.63;4474255;32;20312;-79
2023/10/18 07:59:28;;;;;;;13.50;6.60;;;;;;;9.89;80.31;98971.09;4474064;31;20168;-78
2023/10/18 08:02:19;;;;;;;13.05;6.62;;;;;;;10.09;80.45;98969.44;4478843;31;20157;-79
2023/10/18 08:04:47;;;;;;;15.32;7.57;;;;;;;10.21;80.10;98970.19;4464525;32;20740;-82
2023/10/18 08:07:15;;;;;;;18.98;7.35;;;;;;;10.36;78.34;98963.66;4470093;31;20105;-82
2023/10/18 08:09:43;;;;;;;12.18;6.85;;;;;;;10.55;79.77;98969.94;4475258;31;20101;-77
2023/10/18 08:14:58;;;;;;;13.45;6.57;;;;;;;10.65;77.58;98978.69;4439582;31;20142;-77
2023/10/18 08:17:44;;;;;;;14.40;6.95;;;;;;;10.59;75.95;98971.34;4448904;31;20218;-76
2023/10/18 08:22:50;;;;;;;15.88;7.93;;;;;;;10.52;76.08;98967.59;4479163;31;20096;-76
2023/10/18 08:25:21;;;;;;;13.68;7.47;;;;;;;10.56;76.42;98967.19;4480840;31;20179;-77
2023/10/18 08:27:53;;;;;;;13.93;7.05;;;;;;;10.61;77.05;98966.78;4466528;32;20155;-77
2023/10/18 08:31:03;;;;;;;23.92;7.80;;;;;;;10.66;76.15;98969.88;4461384;32;20141;-76
2023/10/18 08:33:26;;;;;;;23.20;7.37;;;;;;;10.90;75.03;98966.06;4470398;31;20116;-76
2023/10/18 08:35:58;;;;;;;14.68;7.32;;;;;;;11.10;75.77;98964.31;4459580;32;20117;-75
2023/10/18 08:38:27;;;;;;;10.20;6.50;;;;;;;11.23;74.37;98970.09;4454777;32;20092;-76
2023/10/18 08:41:11;;;;;;;16.40;7.82;;;;;;;11.24;73.20;98965.72;4462332;32;20126;-76
2023/10/18 08:44:05;;;;;;;10.10;5.07;;;;;;;11.43;74.17;98952.62;4454638;32;20093;-76
2023/10/18 08:46:36;;;;;;;12.10;6.55;;;;;;;11.41;69.70;98964.19;4425137;32;20139;-76
2023/10/18 08:49:06;;;;;;;9.80;5.40;;;;;;;11.51;70.74;98960.59;4413427;32;20135;-76
2023/10/18 08:51:35;;;;;;;11.00;5.78;;;;;;;11.53;67.66;98965.72;4405466;32;20167;-76
2023/10/18 08:54:03;;;;;;;20.65;6.72;;;;;;;11.72;68.26;98964.91;4423440;32;20843;-74
2023/10/18 08:56:32;;;;;;;15.25;6.30;;;;;;;11.66;68.99;98961.03;4406720;32;20139;-75
2023/10/18 08:59:11;;;;;;;16.42;6.12;;;;;;;11.72;68.44;98962.28;4421376;32;20164;-75
2023/10/18 09:02:01;;;;;;;14.25;5.47;;;;;;;11.74;68.29;98957.69;4425389;32;20217;-75
2023/10/18 09:04:28;;;;;;;9.20;5.50;;;;;;;11.83;66.78;98951.59;4421635;32;20137;-76
2023/10/18 09:06:59;;;;;;;16.42;6.78;;;;;;;11.81;66.60;98950.06;4411181;32;20119;-76
2023/10/18 09:09:35;;;;;;;13.00;6.45;;;;;;;11.64;66.97;98949.84;4407018;32;20176;-75
2023/10/18 09:12:14;;;;;;;12.52;6.05;;;;;;;11.69;69.78;98946.81;4418496;32;20637;-75
2023/10/18 09:14:50;;;;;;;13.18;5.80;;;;;;;12.02;67.84;98944.69;4409650;32;20471;-73
2023/10/18 09:17:23;;;;;;;18.70;6.12;;;;;;;12.07;64.89;98950.34;4421951;32;20131;-73
2023/10/18 09:19:55;;;;;;;10.90;5.28;;;;;;;12.10;63.26;98947.44;4418340;32;20130;-73
2023/10/18 09:22:23;;;;;;;19.20;5.95;;;;;;;11.89;66.38;98952.84;4423028;32;20243;-74
2023/10/18 09:24:51;;;;;;;21.58;5.90;;;;;;;11.91;66.83;98945.66;4453961;32;20120;-74
2023/10/18 09:27:22;;;;;;;21.27;6.55;;;;;;;12.21;66.63;98947.25;4446939;32;20117;-74
2023/10/18 09:29:52;;;;;;;17.15;6.20;;;;;;;12.25;66.89;98942.56;4458298;32;20167;-74
2023/10/18 09:32:32;;;;;;;14.32;5.50;;;;;;;12.23;65.66;98937.47;4459774;32;20166;-75
2023/10/18 09:35:07;;;;;;;15.00;6.00;;;;;;;12.33;65.39;98937.41;4449063;32;20131;-73
2023/10/18 09:37:38;;;;;;;19.87;6.80;;;;;;;12.38;62.76;98942.22;4475963;32;20775;-73
2023/10/18 09:40:06;;;;;;;13.18;6.90;;;;;;;12.21;64.06;98947.25;4474391;31;20096;-74
2023/10/18 09:42:35;;;;;;;12.85;6.22;;;;;;;12.16;64.97;98953.94;4473748;31;20096;-74
2023/10/18 09:45:03;;;;;;;21.05;6.07;;;;;;;12.54;63.51;98942.44;4479516;31;20112;-76
2023/10/18 09:47:30;;;;;;;12.27;6.10;;;;;;;12.70;63.50;98941.81;4469944;31;20100;-75
2023/10/18 09:49:58;;;;;;;16.17;7.07;;;;;;;12.64;61.64;98936.31;4460178;32;20255;-75
2023/10/18 09:52:31;;;;;;;22.42;6.50;;;;;;;12.61;63.36;98942.66;4461942;32;20406;-75
2023/10/18 09:55:01;;;;;;;15.98;6.22;;;;;;;12.78;64.52;98941.91;4464139;32;20475;-76
2023/10/18 09:57:35;;;;;;;14.25;7.32;;;;;;;12.73;62.66;98941.53;4476744;32;20435;-76
2023/10/18 10:00:11;;;;;;;19.75;6.95;;;;;;;12.54;63.13;98942.44;4474184;32;20073;-74
2023/10/18 10:02:39;;;;;;;17.48;7.25;;;;;;;12.88;62.79;98938.38;4476780;32;20111;-76
2023/10/18 10:05:24;;;;;;;13.02;6.35;;;;;;;12.92;62.59;98935.31;4461424;32;20095;-74
2023/10/18 10:08:06;;;;;;;14.43;6.00;;;;;;;12.92;61.81;98932.69;4478375;32;20093;-77
2023/10/18 10:10:43;;;;;;;14.77;6.57;;;;;;;13.16;60.87;98931.28;4477012;32;20139;-77
2023/10/18 10:13:27;;;;;;;11.63;5.70;;;;;;;12.72;62.62;98926.72;4465817;32;20661;-77
2023/10/18 10:15:58;;;;;;;11.68;6.07;;;;;;;12.82;63.17;98923.19;4480514;32;20084;-76
2023/10/18 10:18:32;;;;;;;12.02;5.20;;;;;;;12.78;62.13;98918.25;4466426;32;20446;-76
2023/10/18 10:21:01;;;;;;;20.10;5.43;;;;;;;12.93;60.22;98918.56;4464951;32;20108;-76
2023/10/18 10:23:32;;;;;;;12.60;4.95;;;;;;;12.71;60.86;98905.84;4468785;32;20115;-74
2023/10/18 10:26:11;;;;;;;18.48;5.87;;;;;;;12.99;59.55;98905.78;4481511;32;20100;-75
2023/10/18 10:31:54;;;;;;;32.03;5.80;;;;;;;13.05;59.76;98902.56;4481004;32;20134;-73
2023/10/18 10:34:28;;;;;;;22.98;5.50;;;;;;;12.88;58.75;98897.13;4424846;32;20101;-77
2023/10/18 10:37:11;;;;;;;13.07;5.05;;;;;;;13.33;60.17;98900.69;4421361;32;20151;-74
2023/10/18 10:40:19;;;;;;;14.18;4.53;;;;;;;13.65;59.04;98884.34;4418394;32;20533;-75
2023/10/18 10:42:48;;;;;;;27.80;5.37;;;;;;;13.69;57.95;98879.63;4430101;32;20105;-74
2023/10/18 10:45:31;;;;;;;15.15;5.03;;;;;;;13.47;58.09;98881.78;4433527;32;20097;-75
2023/10/18 10:48:17;;;;;;;15.52;6.45;;;;;;;13.84;57.04;98874.59;4422266;32;20090;-75
2023/10/18 10:50:50;;;;;;;9.77;4.53;;;;;;;13.59;57.53;98878.88;4440278;32;20144;-77
2023/10/18 10:53:32;;;;;;;26.70;5.28;;;;;;;13.38;58.63;98876.59;4438578;32;20131;-79
2023/10/18 10:56:26;;;;;;;9.70;4.22;;;;;;;13.38;58.38;98874.75;4433942;32;20097;-77
2023/10/18 11:01:57;;;;;;;9.75;4.53;;;;;;;13.59;58.21;98850.75;4441012;32;20101;-77
2023/10/18 11:04:27;;;;;;;14.15;6.53;;;;;;;13.73;57.19;98856.44;4431834;32;20141;-78
2023/10/18 11:06:57;;;;;;;13.50;4.50;;;;;;;13.82;58.34;98850.22;4425765;32;20159;-78
2023/10/18 11:09:32;;;;;;;9.88;4.45;;;;;;;14.15;58.28;98850.41;4418768;32;20135;-78
2023/10/18 11:12:07;;;;;;;12.60;5.20;;;;;;;14.10;57.67;98848.22;4444376;32;20595;-77
2023/10/18 11:14:38;;;;;;;8.57;3.90;;;;;;;14.31;57.21;98847.00;4464835;32;20895;-78
2023/10/18 11:19:41;;;;;;;12.98;6.15;;;;;;;14.32;55.02;98838.94;4459389;32;20126;-81
2023/10/18 11:22:19;;;;;;;10.68;5.20;;;;;;;14.15;57.97;98842.50;4461771;32;20117;-79
2023/10/18 11:24:53;;;;;;;13.20;5.68;;;;;;;14.20;58.18;98832.28;4457950;32;20571;-80
2023/10/18 11:27:25;;;;;;;36.00;5.90;;;;;;;14.53;57.36;98827.13;4459009;32;20164;-78
2023/10/18 11:29:56;;;;;;;11.77;5.35;;;;;;;14.50;56.96;98828.31;4464691;32;20101;-79
2023/10/18 11:32:28;;;;;;;16.48;5.90;;;;;;;14.54;56.82;98819.06;4465418;32;20085;-79
2023/10/18 11:35:08;;;;;;;8.75;5.45;;;;;;;14.68;54.90;98816.81;4466132;31;20497;-77
2023/10/18 11:37:38;;;;;;;13.00;5.57;;;;;;;14.66;56.79;98810.88;4477287;32;20100;-77
2023/10/18 11:40:29;;;;;;;21.27;6.40;;;;;;;14.88;55.70;98812.91;4474471;32;20129;-78
2023/10/18 11:43:10;;;;;;;11.57;5.43;;;;;;;14.97;56.69;98805.78;4476967;32;20092;-77
2023/10/18 11:45:38;;;;;;;12.52;5.40;;;;;;;14.51;56.48;98800.94;4475468;31;20104;-77
2023/10/18 11:48:09;;;;;;;8.32;5.72;;;;;;;14.98;56.60;98799.53;4476258;31;20119;-78
2023/10/18 11:50:45;;;;;;;10.35;4.97;;;;;;;14.98;55.91;98791.63;4458659;31;20139;-79
2023/10/18 11:53:15;;;;;;;13.40;5.37;;;;;;;14.81;56.17;98796.06;4477295;31;20108;-78
2023/10/18 11:56:05;;;;;;;20.10;5.95;;;;;;;14.63;57.28;98796.22;4477311;31;20091;-79
2023/10/18 11:58:35;;;;;;;9.98;5.57;;;;;;;14.34;57.16;98797.44;4483484;31;20504;-78
2023/10/18 12:01:16;;;;;;;14.35;5.97;;;;;;;15.04;56.64;98790.16;4479476;31;20133;-78
2023/10/18 12:03:46;;;;;;;17.62;5.60;;;;;;;14.91;56.37;98790.63;4482956;31;20484;-78
2023/10/18 12:06:14;;;;;;;11.73;6.22;;;;;;;15.11;56.81;98783.22;4481890;31;20116;-78
2023/10/18 12:11:30;;;;;;;14.87;6.05;;;;;;;14.74;58.53;98789.78;4426988;32;20151;-79
2023/10/18 12:13:57;;;;;;;9.75;5.57;;;;;;;14.81;56.07;98784.72;4428396;32;20719;-79
2023/10/18 12:16:24;;;;;;;9.82;5.68;;;;;;;15.13;55.50;98777.78;4422554;32;20136;-79
2023/10/18 12:18:52;;;;;;;9.68;6.10;;;;;;;15.31;54.78;98770.50;4428914;32;20614;-78
2023/10/18 12:21:29;;;;;;;17.65;6.75;;;;;;;15.14;54.25;98768.84;4429434;32;20439;-77
2023/10/18 12:23:57;;;;;;;7.00;5.03;;;;;;;15.45;55.08;98768.97;4420324;32;20480;-78
2023/10/18 12:26:28;;;;;;;10.23;5.87;;;;;;;14.75;55.30;98761.59;4432655;32;20122;-78
2023/10/18 12:28:56;;;;;;;11.73;5.43;;;;;;;14.66;55.75;98753.69;4436308;32;20147;-76
2023/10/18 12:31:26;;;;;;;13.00;5.47;;;;;;;14.68;56.31;98759.63;4435397;32;20097;-78
2023/10/18 12:34:00;;;;;;;10.13;5.15;;;;;;;14.11;57.69;98755.06;4433680;32;20531;-78
2023/10/18 12:36:40;;;;;;;11.63;5.78;;;;;;;14.47;56.67;98752.16;4433596;32;20132;-78
2023/10/18 12:39:13;;;;;;;12.40;5.28;;;;;;;14.58;56.49;98742.28;4432183;32;20125;-79
2023/10/18 12:41:41;;;;;;;11.07;5.70;;;;;;;14.31;58.49;98742.41;4431467;32;20106;-79